sensor_id;sensor_type;location;lat;lon;timestamp;temperature;humidity
35363;DHT22;21463;47.480;8.214;2023-05-29T00:00:10;21.10;43.50
35363;DHT22;21463;47.480;8.214;2023-05-29T00:01:15;21.10;43.40
35363;DHT22;21463;47.480;8.214;2023-05-29T00:02:20;21.00;43.40
35363;DHT22;21463;47.480;8.214;2023-05-29T00:03:24;21.10;43.40
35363;DHT22;21463;47.480;8.214;2023-05-29T00:04:27;21.00;43.30
35363;DHT22;21463;47.480;8.214;2023-05-29T00:05:31;21.00;43.40
35363;DHT22;21463;47.480;8.214;2023-05-29T00:06:35;21.00;43.40
35363;DHT22;21463;47.480;8.214;2023-05-29T00:07:39;21.10;43.40
35363;DHT22;21463;47.480;8.214;2023-05-29T00:08:42;21.00;43.30
35363;DHT22;21463;47.480;8.214;2023-05-29T00:09:44;21.10;43.30
35363;DHT22;21463;47.480;8.214;2023-05-29T00:10:47;21.00;43.30
35363;DHT22;21463;47.480;8.214;2023-05-29T00:11:49;21.00;43.30
35363;DHT22;21463;47.480;8.214;2023-05-29T00:12:54;21.00;43.30
35363;DHT22;21463;47.480;8.214;2023-05-29T00:13:58;21.00;43.20
35363;DHT22;21463;47.480;8.214;2023-05-29T00:15:02;21.10;43.30
35363;DHT22;21463;47.480;8.214;2023-05-29T00:16:05;21.00;43.20
35363;DHT22;21463;47.480;8.214;2023-05-29T00:17:10;21.00;43.20
35363;DHT22;21463;47.480;8.214;2023-05-29T00:18:15;21.00;43.20
35363;DHT22;21463;47.480;8.214;2023-05-29T00:19:17;21.00;43.20
35363;DHT22;21463;47.480;8.214;2023-05-29T00:20:24;21.10;43.20
35363;DHT22;21463;47.480;8.214;2023-05-29T00:21:26;21.00;43.20
35363;DHT22;21463;47.480;8.214;2023-05-29T00:22:29;21.00;43.20
35363;DHT22;21463;47.480;8.214;2023-05-29T00:23:31;21.00;43.20
35363;DHT22;21463;47.480;8.214;2023-05-29T00:24:34;21.00;43.10
35363;DHT22;21463;47.480;8.214;2023-05-29T00:25:36;21.00;43.10
35363;DHT22;21463;47.480;8.214;2023-05-29T00:26:38;21.00;43.10
35363;DHT22;21463;47.480;8.214;2023-05-29T00:27:42;21.00;43.10
35363;DHT22;21463;47.480;8.214;2023-05-29T00:28:44;21.10;43.20
35363;DHT22;21463;47.480;8.214;2023-05-29T00:29:48;21.00;43.10
35363;DHT22;21463;47.480;8.214;2023-05-29T00:30:51;21.00;43.10
35363;DHT22;21463;47.480;8.214;2023-05-29T00:31:54;21.00;43.10
35363;DHT22;21463;47.480;8.214;2023-05-29T00:32:57;21.10;43.10
35363;DHT22;21463;47.480;8.214;2023-05-29T00:34:03;21.10;43.10
35363;DHT22;21463;47.480;8.214;2023-05-29T00:35:06;21.00;43.00
35363;DHT22;21463;47.480;8.214;2023-05-29T00:36:09;21.00;43.00
35363;DHT22;21463;47.480;8.214;2023-05-29T00:37:12;21.00;43.00
35363;DHT22;21463;47.480;8.214;2023-05-29T00:38:15;21.00;43.00
35363;DHT22;21463;47.480;8.214;2023-05-29T00:39:17;21.00;43.00
35363;DHT22;21463;47.480;8.214;2023-05-29T00:40:22;21.00;43.00
35363;DHT22;21463;47.480;8.214;2023-05-29T00:41:24;21.00;43.00
35363;DHT22;21463;47.480;8.214;2023-05-29T00:42:27;21.00;43.00
35363;DHT22;21463;47.480;8.214;2023-05-29T00:43:30;21.00;43.00
35363;DHT22;21463;47.480;8.214;2023-05-29T00:44:32;21.00;43.00
35363;DHT22;21463;47.480;8.214;2023-05-29T00:45:35;21.00;43.00
35363;DHT22;21463;47.480;8.214;2023-05-29T00:46:38;21.00;43.00
35363;DHT22;21463;47.480;8.214;2023-05-29T00:47:43;21.00;43.00
35363;DHT22;21463;47.480;8.214;2023-05-29T00:48:46;21.00;43.00
35363;DHT22;21463;47.480;8.214;2023-05-29T00:49:49;21.00;43.00
35363;DHT22;21463;47.480;8.214;2023-05-29T00:50:53;21.00;43.00
35363;DHT22;21463;47.480;8.214;2023-05-29T00:51:56;21.00;43.00
35363;DHT22;21463;47.480;8.214;2023-05-29T00:53:02;21.00;43.00
35363;DHT22;21463;47.480;8.214;2023-05-29T00:54:07;21.00;42.90
35363;DHT22;21463;47.480;8.214;2023-05-29T00:55:12;21.00;43.00
35363;DHT22;21463;47.480;8.214;2023-05-29T00:56:16;21.00;43.00
35363;DHT22;21463;47.480;8.214;2023-05-29T00:57:20;21.00;42.90
35363;DHT22;21463;47.480;8.214;2023-05-29T00:58:24;21.00;42.90
35363;DHT22;21463;47.480;8.214;2023-05-29T00:59:27;21.00;42.90
35363;DHT22;21463;47.480;8.214;2023-05-29T01:00:31;21.00;42.90
35363;DHT22;21463;47.480;8.214;2023-05-29T01:01:35;21.00;42.90
35363;DHT22;21463;47.480;8.214;2023-05-29T01:02:39;21.00;42.90
35363;DHT22;21463;47.480;8.214;2023-05-29T01:03:42;21.00;42.90
35363;DHT22;21463;47.480;8.214;2023-05-29T01:04:44;21.00;42.90
35363;DHT22;21463;47.480;8.214;2023-05-29T01:05:48;21.00;42.90
35363;DHT22;21463;47.480;8.214;2023-05-29T01:06:51;21.00;42.90
35363;DHT22;21463;47.480;8.214;2023-05-29T01:07:53;21.00;42.90
35363;DHT22;21463;47.480;8.214;2023-05-29T01:08:56;21.00;42.90
35363;DHT22;21463;47.480;8.214;2023-05-29T01:10:00;21.00;42.90
35363;DHT22;21463;47.480;8.214;2023-05-29T01:11:15;21.00;42.90
35363;DHT22;21463;47.480;8.214;2023-05-29T01:13:34;21.00;42.90
35363;DHT22;21463;47.480;8.214;2023-05-29T01:16:03;21.00;42.80
35363;DHT22;21463;47.480;8.214;2023-05-29T01:17:17;21.00;42.80
35363;DHT22;21463;47.480;8.214;2023-05-29T01:21:59;21.00;42.80
35363;DHT22;21463;47.480;8.214;2023-05-29T01:23:09;21.00;42.90
35363;DHT22;21463;47.480;8.214;2023-05-29T01:24:41;21.00;42.80
35363;DHT22;21463;47.480;8.214;2023-05-29T01:25:56;21.00;42.80
35363;DHT22;21463;47.480;8.214;2023-05-29T01:27:03;21.10;42.90
35363;DHT22;21463;47.480;8.214;2023-05-29T01:28:28;21.00;42.80
35363;DHT22;21463;47.480;8.214;2023-05-29T01:29:34;21.00;42.80
35363;DHT22;21463;47.480;8.214;2023-05-29T01:30:39;21.00;42.80
35363;DHT22;21463;47.480;8.214;2023-05-29T01:31:43;21.00;42.80
35363;DHT22;21463;47.480;8.214;2023-05-29T01:32:46;21.00;42.80
35363;DHT22;21463;47.480;8.214;2023-05-29T01:33:55;21.00;42.80
35363;DHT22;21463;47.480;8.214;2023-05-29T01:35:00;21.00;42.80
35363;DHT22;21463;47.480;8.214;2023-05-29T01:36:04;21.10;42.80
35363;DHT22;21463;47.480;8.214;2023-05-29T01:37:06;21.00;42.80
35363;DHT22;21463;47.480;8.214;2023-05-29T01:38:14;21.00;42.80
35363;DHT22;21463;47.480;8.214;2023-05-29T01:39:19;21.10;42.90
35363;DHT22;21463;47.480;8.214;2023-05-29T01:40:24;21.00;42.70
35363;DHT22;21463;47.480;8.214;2023-05-29T01:41:27;20.90;42.70
35363;DHT22;21463;47.480;8.214;2023-05-29T01:42:33;21.00;42.80
35363;DHT22;21463;47.480;8.214;2023-05-29T01:43:36;21.00;42.80
35363;DHT22;21463;47.480;8.214;2023-05-29T01:44:39;21.00;42.70
35363;DHT22;21463;47.480;8.214;2023-05-29T01:45:43;21.00;42.70
35363;DHT22;21463;47.480;8.214;2023-05-29T01:46:47;21.00;42.70
35363;DHT22;21463;47.480;8.214;2023-05-29T01:47:50;21.00;42.70
35363;DHT22;21463;47.480;8.214;2023-05-29T01:48:53;21.00;42.70
35363;DHT22;21463;47.480;8.214;2023-05-29T01:49:57;21.00;42.70
35363;DHT22;21463;47.480;8.214;2023-05-29T01:50:59;21.00;42.70
35363;DHT22;21463;47.480;8.214;2023-05-29T01:52:02;21.00;42.70
35363;DHT22;21463;47.480;8.214;2023-05-29T01:53:05;21.00;42.70
35363;DHT22;21463;47.480;8.214;2023-05-29T01:54:07;21.00;42.70
35363;DHT22;21463;47.480;8.214;2023-05-29T01:55:10;21.00;42.70
35363;DHT22;21463;47.480;8.214;2023-05-29T01:56:13;21.00;42.70
35363;DHT22;21463;47.480;8.214;2023-05-29T01:57:17;21.00;42.70
35363;DHT22;21463;47.480;8.214;2023-05-29T01:58:21;21.00;42.70
35363;DHT22;21463;47.480;8.214;2023-05-29T01:59:27;21.00;42.70
35363;DHT22;21463;47.480;8.214;2023-05-29T02:00:30;21.00;42.70
35363;DHT22;21463;47.480;8.214;2023-05-29T02:01:33;21.00;42.70
35363;DHT22;21463;47.480;8.214;2023-05-29T02:02:38;21.00;42.70
35363;DHT22;21463;47.480;8.214;2023-05-29T02:03:41;21.00;42.70
35363;DHT22;21463;47.480;8.214;2023-05-29T02:04:44;21.00;42.70
35363;DHT22;21463;47.480;8.214;2023-05-29T02:05:47;21.00;42.70
35363;DHT22;21463;47.480;8.214;2023-05-29T02:06:49;21.00;42.70
35363;DHT22;21463;47.480;8.214;2023-05-29T02:07:51;21.00;42.70
35363;DHT22;21463;47.480;8.214;2023-05-29T02:08:54;21.00;42.70
35363;DHT22;21463;47.480;8.214;2023-05-29T02:09:57;21.00;42.70
35363;DHT22;21463;47.480;8.214;2023-05-29T02:10:59;21.00;42.60
35363;DHT22;21463;47.480;8.214;2023-05-29T02:12:02;21.00;42.60
35363;DHT22;21463;47.480;8.214;2023-05-29T02:13:05;21.00;42.60
35363;DHT22;21463;47.480;8.214;2023-05-29T02:14:08;21.00;42.60
35363;DHT22;21463;47.480;8.214;2023-05-29T02:15:10;21.00;42.60
35363;DHT22;21463;47.480;8.214;2023-05-29T02:16:14;20.90;42.60
35363;DHT22;21463;47.480;8.214;2023-05-29T02:17:16;21.00;42.60
35363;DHT22;21463;47.480;8.214;2023-05-29T02:18:24;21.00;42.60
35363;DHT22;21463;47.480;8.214;2023-05-29T02:19:27;21.00;42.60
35363;DHT22;21463;47.480;8.214;2023-05-29T02:20:30;21.00;42.60
35363;DHT22;21463;47.480;8.214;2023-05-29T02:21:33;21.00;42.60
35363;DHT22;21463;47.480;8.214;2023-05-29T02:22:39;21.00;42.60
35363;DHT22;21463;47.480;8.214;2023-05-29T02:23:41;21.00;42.60
35363;DHT22;21463;47.480;8.214;2023-05-29T02:24:45;20.90;42.60
35363;DHT22;21463;47.480;8.214;2023-05-29T02:25:47;21.00;42.60
35363;DHT22;21463;47.480;8.214;2023-05-29T02:26:49;20.90;42.60
35363;DHT22;21463;47.480;8.214;2023-05-29T02:27:53;21.00;42.60
35363;DHT22;21463;47.480;8.214;2023-05-29T02:28:56;21.00;42.60
35363;DHT22;21463;47.480;8.214;2023-05-29T02:29:59;21.00;42.60
35363;DHT22;21463;47.480;8.214;2023-05-29T02:31:02;21.00;42.60
35363;DHT22;21463;47.480;8.214;2023-05-29T02:32:04;21.00;42.60
35363;DHT22;21463;47.480;8.214;2023-05-29T02:33:11;21.00;42.60
35363;DHT22;21463;47.480;8.214;2023-05-29T02:34:15;21.00;42.60
35363;DHT22;21463;47.480;8.214;2023-05-29T02:35:17;21.00;42.60
35363;DHT22;21463;47.480;8.214;2023-05-29T02:36:23;21.00;42.60
35363;DHT22;21463;47.480;8.214;2023-05-29T02:37:25;20.90;42.60
35363;DHT22;21463;47.480;8.214;2023-05-29T02:38:29;21.00;42.60
35363;DHT22;21463;47.480;8.214;2023-05-29T02:39:31;21.00;42.60
35363;DHT22;21463;47.480;8.214;2023-05-29T02:40:35;21.00;42.60
35363;DHT22;21463;47.480;8.214;2023-05-29T02:41:39;21.00;42.60
35363;DHT22;21463;47.480;8.214;2023-05-29T02:42:41;21.00;42.60
35363;DHT22;21463;47.480;8.214;2023-05-29T02:43:43;21.00;42.60
35363;DHT22;21463;47.480;8.214;2023-05-29T02:44:46;21.00;42.60
35363;DHT22;21463;47.480;8.214;2023-05-29T02:45:49;21.10;42.60
35363;DHT22;21463;47.480;8.214;2023-05-29T02:46:53;21.00;42.60
35363;DHT22;21463;47.480;8.214;2023-05-29T02:47:56;21.00;42.60
35363;DHT22;21463;47.480;8.214;2023-05-29T02:49:01;21.00;43.10
35363;DHT22;21463;47.480;8.214;2023-05-29T02:50:05;20.90;42.50
35363;DHT22;21463;47.480;8.214;2023-05-29T02:51:08;21.00;42.60
35363;DHT22;21463;47.480;8.214;2023-05-29T02:52:12;21.00;42.60
35363;DHT22;21463;47.480;8.214;2023-05-29T02:53:14;21.00;42.60
35363;DHT22;21463;47.480;8.214;2023-05-29T02:54:17;20.90;42.50
35363;DHT22;21463;47.480;8.214;2023-05-29T02:55:19;21.00;42.60
35363;DHT22;21463;47.480;8.214;2023-05-29T02:56:22;21.00;42.60
35363;DHT22;21463;47.480;8.214;2023-05-29T02:57:28;20.90;42.50
35363;DHT22;21463;47.480;8.214;2023-05-29T02:58:32;21.00;42.60
35363;DHT22;21463;47.480;8.214;2023-05-29T02:59:35;20.90;42.50
35363;DHT22;21463;47.480;8.214;2023-05-29T03:00:38;20.90;42.50
35363;DHT22;21463;47.480;8.214;2023-05-29T03:01:41;21.00;42.50
35363;DHT22;21463;47.480;8.214;2023-05-29T03:02:43;21.00;42.60
35363;DHT22;21463;47.480;8.214;2023-05-29T03:03:46;21.00;42.60
35363;DHT22;21463;47.480;8.214;2023-05-29T03:04:49;21.00;42.50
35363;DHT22;21463;47.480;8.214;2023-05-29T03:05:54;21.00;42.60
35363;DHT22;21463;47.480;8.214;2023-05-29T03:06:57;21.00;42.60
35363;DHT22;21463;47.480;8.214;2023-05-29T03:08:00;21.00;42.50
35363;DHT22;21463;47.480;8.214;2023-05-29T03:09:03;21.00;42.60
35363;DHT22;21463;47.480;8.214;2023-05-29T03:10:10;21.00;42.60
35363;DHT22;21463;47.480;8.214;2023-05-29T03:11:14;21.00;42.50
35363;DHT22;21463;47.480;8.214;2023-05-29T03:12:17;21.00;42.50
35363;DHT22;21463;47.480;8.214;2023-05-29T03:13:20;21.00;42.50
35363;DHT22;21463;47.480;8.214;2023-05-29T03:14:30;21.00;42.50
35363;DHT22;21463;47.480;8.214;2023-05-29T03:15:45;21.00;42.50
35363;DHT22;21463;47.480;8.214;2023-05-29T03:16:48;20.90;42.50
35363;DHT22;21463;47.480;8.214;2023-05-29T03:17:51;20.90;42.50
35363;DHT22;21463;47.480;8.214;2023-05-29T03:19:00;21.00;42.50
35363;DHT22;21463;47.480;8.214;2023-05-29T03:20:03;21.00;42.50
35363;DHT22;21463;47.480;8.214;2023-05-29T03:21:08;21.00;42.50
35363;DHT22;21463;47.480;8.214;2023-05-29T03:22:10;21.00;42.50
35363;DHT22;21463;47.480;8.214;2023-05-29T03:23:15;21.00;42.50
35363;DHT22;21463;47.480;8.214;2023-05-29T03:24:17;21.00;42.50
35363;DHT22;21463;47.480;8.214;2023-05-29T03:25:22;21.00;42.50
35363;DHT22;21463;47.480;8.214;2023-05-29T03:26:25;21.00;42.50
35363;DHT22;21463;47.480;8.214;2023-05-29T03:27:28;21.00;42.50
35363;DHT22;21463;47.480;8.214;2023-05-29T03:28:39;20.90;42.40
35363;DHT22;21463;47.480;8.214;2023-05-29T03:29:46;20.90;42.40
35363;DHT22;21463;47.480;8.214;2023-05-29T03:30:49;21.00;42.50
35363;DHT22;21463;47.480;8.214;2023-05-29T03:31:56;21.00;42.40
35363;DHT22;21463;47.480;8.214;2023-05-29T03:33:02;21.00;42.40
35363;DHT22;21463;47.480;8.214;2023-05-29T03:34:27;20.90;42.40
35363;DHT22;21463;47.480;8.214;2023-05-29T03:35:33;21.00;42.50
35363;DHT22;21463;47.480;8.214;2023-05-29T03:36:40;21.00;42.40
35363;DHT22;21463;47.480;8.214;2023-05-29T03:37:43;21.00;42.40
35363;DHT22;21463;47.480;8.214;2023-05-29T03:38:46;21.00;42.40
35363;DHT22;21463;47.480;8.214;2023-05-29T03:39:48;21.00;42.40
35363;DHT22;21463;47.480;8.214;2023-05-29T03:40:50;20.90;42.40
35363;DHT22;21463;47.480;8.214;2023-05-29T03:41:54;21.00;42.40
35363;DHT22;21463;47.480;8.214;2023-05-29T03:42:57;21.00;42.40
35363;DHT22;21463;47.480;8.214;2023-05-29T03:44:01;20.90;42.40
35363;DHT22;21463;47.480;8.214;2023-05-29T03:45:05;21.00;42.40
35363;DHT22;21463;47.480;8.214;2023-05-29T03:46:13;21.00;42.40
35363;DHT22;21463;47.480;8.214;2023-05-29T03:47:16;21.00;42.40
35363;DHT22;21463;47.480;8.214;2023-05-29T03:48:20;21.00;42.40
35363;DHT22;21463;47.480;8.214;2023-05-29T03:49:23;20.90;42.40
35363;DHT22;21463;47.480;8.214;2023-05-29T03:50:26;21.00;42.40
35363;DHT22;21463;47.480;8.214;2023-05-29T03:51:30;21.00;42.40
35363;DHT22;21463;47.480;8.214;2023-05-29T03:52:33;20.90;42.40
35363;DHT22;21463;47.480;8.214;2023-05-29T03:53:36;21.00;42.40
35363;DHT22;21463;47.480;8.214;2023-05-29T03:54:42;21.00;42.40
35363;DHT22;21463;47.480;8.214;2023-05-29T03:55:46;20.90;42.30
35363;DHT22;21463;47.480;8.214;2023-05-29T03:56:49;21.00;42.40
35363;DHT22;21463;47.480;8.214;2023-05-29T03:57:52;20.90;42.30
35363;DHT22;21463;47.480;8.214;2023-05-29T03:58:55;21.00;42.40
35363;DHT22;21463;47.480;8.214;2023-05-29T04:00:01;21.00;42.40
35363;DHT22;21463;47.480;8.214;2023-05-29T04:01:14;21.00;42.40
35363;DHT22;21463;47.480;8.214;2023-05-29T04:02:17;20.90;42.30
35363;DHT22;21463;47.480;8.214;2023-05-29T04:03:22;21.00;42.40
35363;DHT22;21463;47.480;8.214;2023-05-29T04:04:25;21.00;42.40
35363;DHT22;21463;47.480;8.214;2023-05-29T04:05:29;21.00;42.40
35363;DHT22;21463;47.480;8.214;2023-05-29T04:06:33;21.00;42.40
35363;DHT22;21463;47.480;8.214;2023-05-29T04:07:43;20.90;42.30
35363;DHT22;21463;47.480;8.214;2023-05-29T04:08:45;21.00;42.40
35363;DHT22;21463;47.480;8.214;2023-05-29T04:09:49;21.00;42.30
35363;DHT22;21463;47.480;8.214;2023-05-29T04:10:52;21.00;42.40
35363;DHT22;21463;47.480;8.214;2023-05-29T04:11:57;21.00;43.00
35363;DHT22;21463;47.480;8.214;2023-05-29T04:13:00;21.00;42.30
35363;DHT22;21463;47.480;8.214;2023-05-29T04:14:03;21.00;42.30
35363;DHT22;21463;47.480;8.214;2023-05-29T04:15:06;21.00;42.30
35363;DHT22;21463;47.480;8.214;2023-05-29T04:16:10;21.00;42.30
35363;DHT22;21463;47.480;8.214;2023-05-29T04:17:13;21.00;42.30
35363;DHT22;21463;47.480;8.214;2023-05-29T04:18:18;21.00;42.30
35363;DHT22;21463;47.480;8.214;2023-05-29T04:19:20;20.90;42.30
35363;DHT22;21463;47.480;8.214;2023-05-29T04:20:25;21.00;42.30
35363;DHT22;21463;47.480;8.214;2023-05-29T04:21:28;21.00;42.30
35363;DHT22;21463;47.480;8.214;2023-05-29T04:22:32;21.00;42.30
35363;DHT22;21463;47.480;8.214;2023-05-29T04:23:36;21.00;42.30
35363;DHT22;21463;47.480;8.214;2023-05-29T04:24:39;21.10;42.40
35363;DHT22;21463;47.480;8.214;2023-05-29T04:25:42;21.00;42.30
35363;DHT22;21463;47.480;8.214;2023-05-29T04:26:49;20.90;42.30
35363;DHT22;21463;47.480;8.214;2023-05-29T04:27:53;21.00;42.30
35363;DHT22;21463;47.480;8.214;2023-05-29T04:28:57;20.90;42.30
35363;DHT22;21463;47.480;8.214;2023-05-29T04:30:00;20.90;42.30
35363;DHT22;21463;47.480;8.214;2023-05-29T04:31:07;21.00;42.30
35363;DHT22;21463;47.480;8.214;2023-05-29T04:32:11;21.00;42.30
35363;DHT22;21463;47.480;8.214;2023-05-29T04:33:17;21.00;42.30
35363;DHT22;21463;47.480;8.214;2023-05-29T04:34:22;21.00;42.30
35363;DHT22;21463;47.480;8.214;2023-05-29T04:35:26;21.00;42.30
35363;DHT22;21463;47.480;8.214;2023-05-29T04:36:33;21.00;42.20
35363;DHT22;21463;47.480;8.214;2023-05-29T04:37:42;21.00;42.30
35363;DHT22;21463;47.480;8.214;2023-05-29T04:38:46;20.90;42.20
35363;DHT22;21463;47.480;8.214;2023-05-29T04:39:51;21.00;42.30
35363;DHT22;21463;47.480;8.214;2023-05-29T04:40:58;21.00;42.30
35363;DHT22;21463;47.480;8.214;2023-05-29T04:42:03;21.00;42.30
35363;DHT22;21463;47.480;8.214;2023-05-29T04:43:05;21.00;42.30
35363;DHT22;21463;47.480;8.214;2023-05-29T04:44:24;21.00;42.30
35363;DHT22;21463;47.480;8.214;2023-05-29T04:45:28;20.90;42.20
35363;DHT22;21463;47.480;8.214;2023-05-29T04:46:32;21.00;42.30
35363;DHT22;21463;47.480;8.214;2023-05-29T04:47:39;21.00;42.30
35363;DHT22;21463;47.480;8.214;2023-05-29T04:48:47;21.00;42.30
35363;DHT22;21463;47.480;8.214;2023-05-29T04:49:51;20.90;42.20
35363;DHT22;21463;47.480;8.214;2023-05-29T04:50:54;20.90;42.20
35363;DHT22;21463;47.480;8.214;2023-05-29T04:51:57;20.90;42.20
35363;DHT22;21463;47.480;8.214;2023-05-29T04:53:02;20.90;42.20
35363;DHT22;21463;47.480;8.214;2023-05-29T04:54:04;21.00;42.20
35363;DHT22;21463;47.480;8.214;2023-05-29T04:55:08;21.00;42.20
35363;DHT22;21463;47.480;8.214;2023-05-29T04:56:13;21.00;42.20
35363;DHT22;21463;47.480;8.214;2023-05-29T04:57:17;21.00;42.20
35363;DHT22;21463;47.480;8.214;2023-05-29T04:58:21;21.00;42.20
35363;DHT22;21463;47.480;8.214;2023-05-29T04:59:28;21.00;42.20
35363;DHT22;21463;47.480;8.214;2023-05-29T05:00:31;21.00;42.20
35363;DHT22;21463;47.480;8.214;2023-05-29T05:01:34;21.00;42.20
35363;DHT22;21463;47.480;8.214;2023-05-29T05:02:37;21.00;42.20
35363;DHT22;21463;47.480;8.214;2023-05-29T05:03:41;21.00;42.20
35363;DHT22;21463;47.480;8.214;2023-05-29T05:04:44;21.00;42.20
35363;DHT22;21463;47.480;8.214;2023-05-29T05:05:47;21.00;42.20
35363;DHT22;21463;47.480;8.214;2023-05-29T05:06:51;21.00;42.20
35363;DHT22;21463;47.480;8.214;2023-05-29T05:07:53;21.00;42.20
35363;DHT22;21463;47.480;8.214;2023-05-29T05:08:58;20.90;42.20
35363;DHT22;21463;47.480;8.214;2023-05-29T05:10:01;21.00;42.20
35363;DHT22;21463;47.480;8.214;2023-05-29T05:11:04;21.00;42.20
35363;DHT22;21463;47.480;8.214;2023-05-29T05:12:08;21.00;42.20
35363;DHT22;21463;47.480;8.214;2023-05-29T05:13:10;21.00;42.20
35363;DHT22;21463;47.480;8.214;2023-05-29T05:14:15;21.00;42.20
35363;DHT22;21463;47.480;8.214;2023-05-29T05:15:17;21.00;42.20
35363;DHT22;21463;47.480;8.214;2023-05-29T05:16:20;21.00;42.30
35363;DHT22;21463;47.480;8.214;2023-05-29T05:17:23;21.00;42.20
35363;DHT22;21463;47.480;8.214;2023-05-29T05:18:26;20.90;42.20
35363;DHT22;21463;47.480;8.214;2023-05-29T05:19:35;21.00;42.20
35363;DHT22;21463;47.480;8.214;2023-05-29T05:20:39;20.90;42.10
35363;DHT22;21463;47.480;8.214;2023-05-29T05:21:42;21.00;42.20
35363;DHT22;21463;47.480;8.214;2023-05-29T05:22:45;21.00;42.20
35363;DHT22;21463;47.480;8.214;2023-05-29T05:23:50;21.00;42.20
35363;DHT22;21463;47.480;8.214;2023-05-29T05:25:00;21.00;42.20
35363;DHT22;21463;47.480;8.214;2023-05-29T05:26:04;20.90;42.10
35363;DHT22;21463;47.480;8.214;2023-05-29T05:27:09;21.00;42.20
35363;DHT22;21463;47.480;8.214;2023-05-29T05:28:12;21.00;42.20
35363;DHT22;21463;47.480;8.214;2023-05-29T05:29:15;21.00;42.20
35363;DHT22;21463;47.480;8.214;2023-05-29T05:30:17;21.00;42.20
35363;DHT22;21463;47.480;8.214;2023-05-29T05:31:20;21.00;42.20
35363;DHT22;21463;47.480;8.214;2023-05-29T05:32:22;21.00;42.20
35363;DHT22;21463;47.480;8.214;2023-05-29T05:33:32;21.00;42.20
35363;DHT22;21463;47.480;8.214;2023-05-29T05:34:34;21.00;42.20
35363;DHT22;21463;47.480;8.214;2023-05-29T05:35:37;21.00;42.20
35363;DHT22;21463;47.480;8.214;2023-05-29T05:36:40;21.00;42.20
35363;DHT22;21463;47.480;8.214;2023-05-29T05:37:47;21.00;42.30
35363;DHT22;21463;47.480;8.214;2023-05-29T05:38:51;21.00;42.20
35363;DHT22;21463;47.480;8.214;2023-05-29T05:39:54;21.00;42.20
35363;DHT22;21463;47.480;8.214;2023-05-29T05:40:56;21.00;42.20
35363;DHT22;21463;47.480;8.214;2023-05-29T05:42:04;21.00;42.20
35363;DHT22;21463;47.480;8.214;2023-05-29T05:43:24;21.00;42.30
35363;DHT22;21463;47.480;8.214;2023-05-29T05:44:39;21.00;42.20
35363;DHT22;21463;47.480;8.214;2023-05-29T05:45:45;21.00;42.20
35363;DHT22;21463;47.480;8.214;2023-05-29T05:46:48;21.00;42.20
35363;DHT22;21463;47.480;8.214;2023-05-29T05:47:50;21.00;42.20
35363;DHT22;21463;47.480;8.214;2023-05-29T05:48:56;20.90;42.20
35363;DHT22;21463;47.480;8.214;2023-05-29T05:49:59;20.90;42.10
35363;DHT22;21463;47.480;8.214;2023-05-29T05:51:06;21.00;42.20
35363;DHT22;21463;47.480;8.214;2023-05-29T05:52:08;20.90;42.20
35363;DHT22;21463;47.480;8.214;2023-05-29T05:53:11;21.00;42.20
35363;DHT22;21463;47.480;8.214;2023-05-29T05:54:13;21.00;42.20
35363;DHT22;21463;47.480;8.214;2023-05-29T05:55:17;21.00;42.20
35363;DHT22;21463;47.480;8.214;2023-05-29T05:56:19;21.00;42.20
35363;DHT22;21463;47.480;8.214;2023-05-29T05:57:22;20.90;42.20
35363;DHT22;21463;47.480;8.214;2023-05-29T05:58:25;21.00;42.20
35363;DHT22;21463;47.480;8.214;2023-05-29T05:59:27;21.00;42.20
35363;DHT22;21463;47.480;8.214;2023-05-29T06:00:30;21.00;42.20
35363;DHT22;21463;47.480;8.214;2023-05-29T06:01:33;21.00;42.20
35363;DHT22;21463;47.480;8.214;2023-05-29T06:02:41;21.00;42.20
35363;DHT22;21463;47.480;8.214;2023-05-29T06:03:46;21.00;42.20
35363;DHT22;21463;47.480;8.214;2023-05-29T06:04:49;21.00;42.20
35363;DHT22;21463;47.480;8.214;2023-05-29T06:05:52;21.00;42.20
35363;DHT22;21463;47.480;8.214;2023-05-29T06:06:58;21.00;42.20
35363;DHT22;21463;47.480;8.214;2023-05-29T06:08:00;21.00;42.30
35363;DHT22;21463;47.480;8.214;2023-05-29T06:09:03;20.90;42.20
35363;DHT22;21463;47.480;8.214;2023-05-29T06:10:07;21.00;42.20
35363;DHT22;21463;47.480;8.214;2023-05-29T06:11:09;21.00;42.20
35363;DHT22;21463;47.480;8.214;2023-05-29T06:12:18;20.90;42.20
35363;DHT22;21463;47.480;8.214;2023-05-29T06:13:31;21.00;42.30
35363;DHT22;21463;47.480;8.214;2023-05-29T06:14:41;20.90;42.20
35363;DHT22;21463;47.480;8.214;2023-05-29T06:15:43;21.00;42.20
35363;DHT22;21463;47.480;8.214;2023-05-29T06:16:50;21.00;42.20
35363;DHT22;21463;47.480;8.214;2023-05-29T06:17:52;21.00;42.30
35363;DHT22;21463;47.480;8.214;2023-05-29T06:18:58;21.00;42.30
35363;DHT22;21463;47.480;8.214;2023-05-29T06:20:02;21.00;42.30
35363;DHT22;21463;47.480;8.214;2023-05-29T06:21:09;20.90;42.20
35363;DHT22;21463;47.480;8.214;2023-05-29T06:22:18;21.00;42.30
35363;DHT22;21463;47.480;8.214;2023-05-29T06:23:21;20.90;42.20
35363;DHT22;21463;47.480;8.214;2023-05-29T06:24:25;20.90;42.20
35363;DHT22;21463;47.480;8.214;2023-05-29T06:25:27;21.00;42.30
35363;DHT22;21463;47.480;8.214;2023-05-29T06:26:36;21.00;42.30
35363;DHT22;21463;47.480;8.214;2023-05-29T06:27:40;21.00;42.30
35363;DHT22;21463;47.480;8.214;2023-05-29T06:28:44;21.00;42.30
35363;DHT22;21463;47.480;8.214;2023-05-29T06:29:50;21.00;42.30
35363;DHT22;21463;47.480;8.214;2023-05-29T06:30:53;21.00;42.30
35363;DHT22;21463;47.480;8.214;2023-05-29T06:31:58;21.00;42.30
35363;DHT22;21463;47.480;8.214;2023-05-29T06:33:00;20.90;42.30
35363;DHT22;21463;47.480;8.214;2023-05-29T06:34:06;21.00;42.30
35363;DHT22;21463;47.480;8.214;2023-05-29T06:35:08;21.00;42.30
35363;DHT22;21463;47.480;8.214;2023-05-29T06:36:11;20.90;42.20
35363;DHT22;21463;47.480;8.214;2023-05-29T06:37:15;21.00;42.30
35363;DHT22;21463;47.480;8.214;2023-05-29T06:38:18;21.00;42.30
35363;DHT22;21463;47.480;8.214;2023-05-29T06:39:20;21.00;42.30
35363;DHT22;21463;47.480;8.214;2023-05-29T06:40:23;21.00;42.30
35363;DHT22;21463;47.480;8.214;2023-05-29T06:41:25;21.00;42.30
35363;DHT22;21463;47.480;8.214;2023-05-29T06:42:28;21.00;42.30
35363;DHT22;21463;47.480;8.214;2023-05-29T06:43:34;21.00;42.30
35363;DHT22;21463;47.480;8.214;2023-05-29T06:44:38;21.00;42.30
35363;DHT22;21463;47.480;8.214;2023-05-29T06:45:42;21.00;42.40
35363;DHT22;21463;47.480;8.214;2023-05-29T06:46:45;21.00;42.30
35363;DHT22;21463;47.480;8.214;2023-05-29T06:47:49;21.00;42.30
35363;DHT22;21463;47.480;8.214;2023-05-29T06:48:52;21.00;42.30
35363;DHT22;21463;47.480;8.214;2023-05-29T06:49:57;21.00;42.30
35363;DHT22;21463;47.480;8.214;2023-05-29T06:51:01;20.90;42.30
35363;DHT22;21463;47.480;8.214;2023-05-29T06:52:15;20.90;42.30